Accueil
METAR-TAF:

METAR-TAF

Aéroports :

Base aérienne de Nörvenich

Nörvenich, Allemagne

latitude: 50-50N, longitude: 006-40E, altitude: 118 m

Observation

Le bulletin a été fait il y a 1 heure et 9 minutes, à 14:20 UTC
Vent 2 kt de est
Température 0°C
Humidité 69%
Pression 1021 hPa
Visibilité 10 km ou plus
Quelques nuages à une hauteur de 30000 ft

METAR: ETNN 211420Z 10002KT 9999 FEW300 00/M05 Q1021 BLU+BLU+

Heure: 16:29 (15:29 UTC)

Prévision

Le bulletin a été fait il y a 1 heure et 29 minutes, à 14:00 UTC
Prévision valable du 21 à 15 UTC au 21 à 24 UTC
Vent 3 kt de direction variable
Visibilité 10 km ou plus
Quelques nuages à une hauteur de 25000 ft
Probabilité 30%
du 21 à 18 UTC au 21 à 24 UTC
Vent 3 kt de direction variable
Visibilité: 4000 m
Quelques nuages à une hauteur de 25000 ft
Brouillard mince

TAF: ETNN 211400Z 2115/2124 VRB03KT 9999 NSW FEW250 PROB30 2118/2124 VRB03KT 4000 MIFG FEW250 BY ETGL

Observations et prévisions météorologiques de plus de 4000 aéroports (messages METAR et TAF).

Les stations disponibles sont représentées par des disques jaunes et rouges sur la carte.

Passer la souris dessus pour voir le nom de la station.

Cliquer dessus pour voir les observations et prévisions météorologiques.

Pour changer de carte: cliquez sur les boutons verts avec une croix noire pour zoomer, sur le bouton vert avec un tiret pour effectuer un zoom arrière, ou sur les flèches vertes pour les cartes adjacentes.


METAR-TAF: